Time;durP1;ratioP1;P1;durP2;ratioP2;P2;SDS_P1;SDS_P2;PMS_P1;PMS_P2;Temp;Humidity;BMP_temperature;BMP_pressure;BME280_temperature;BME280_humidity;BME280_pressure;Samples;Min_cycle;Max_cycle;Signal;HPM_P1;HPM_P2
2022/08/29 00:01:25;;;;;;;24.15;6.38;;;;;;;27.13;76.68;100785.81;4937499;29;20027;-76
2022/08/29 00:04:11;;;;;;;18.88;6.38;;;;;;;27.05;76.80;100781.06;4937778;29;20053;-76
2022/08/29 00:06:57;;;;;;;23.77;6.80;;;;;;;27.12;78.47;100786.75;4937207;29;20115;-76
2022/08/29 00:09:43;;;;;;;15.25;6.20;;;;;;;27.04;78.19;100784.75;4937814;29;20043;-76
2022/08/29 00:12:29;;;;;;;15.00;6.32;;;;;;;26.95;79.05;100784.66;4937518;29;20078;-76
2022/08/29 00:15:15;;;;;;;20.52;6.18;;;;;;;26.81;81.04;100780.44;4937637;29;20032;-76
2022/08/29 00:18:02;;;;;;;23.05;7.20;;;;;;;27.06;79.58;100790.00;4937931;29;20065;-76
2022/08/29 00:20:48;;;;;;;18.33;6.43;;;;;;;26.94;80.96;100788.34;4924439;29;20035;-75
2022/08/29 00:23:34;;;;;;;19.63;6.20;;;;;;;26.87;82.09;100785.31;4936734;29;20032;-76
2022/08/29 00:26:20;;;;;;;20.05;6.60;;;;;;;26.66;84.59;100780.84;4937007;29;20037;-76
2022/08/29 00:29:06;;;;;;;15.00;6.22;;;;;;;26.62;84.94;100782.09;4936076;29;20198;-76
2022/08/29 00:31:52;;;;;;;17.33;6.90;;;;;;;26.58;85.39;100784.19;4923523;29;20019;-76
2022/08/29 00:34:38;;;;;;;15.38;6.22;;;;;;;26.57;85.72;100774.38;4936769;29;20110;-76
2022/08/29 00:37:23;;;;;;;19.95;6.63;;;;;;;26.64;86.08;100775.59;4926560;29;20031;-76
2022/08/29 00:40:12;;;;;;;18.73;6.28;;;;;;;26.51;86.89;100774.03;4940766;29;20031;-75
2022/08/29 00:42:59;;;;;;;15.10;6.30;;;;;;;26.72;87.69;100783.88;4939638;29;20130;-76
2022/08/29 00:46:26;;;;;;;20.88;6.47;;;;;;;26.73;86.69;100780.22;4940621;29;20028;-76
2022/08/29 00:49:30;;;;;;;16.27;7.10;;;;;;;26.51;88.22;100771.34;4863529;29;20416;-76
2022/08/29 00:52:32;;;;;;;15.05;6.78;;;;;;;26.50;89.53;100777.69;4926813;29;20281;-76
2022/08/29 00:55:22;;;;;;;22.15;7.07;;;;;;;26.47;91.26;100777.94;4940032;29;20074;-76
2022/08/29 00:58:13;;;;;;;21.75;7.00;;;;;;;26.45;91.01;100766.47;4940288;29;20059;-76
2022/08/29 01:01:00;;;;;;;18.48;6.43;;;;;;;26.35;92.37;100768.19;4940370;29;20091;-76
2022/08/29 01:03:46;;;;;;;16.92;6.55;;;;;;;26.32;93.77;100771.16;4940298;29;20384;-76
2022/08/29 01:06:34;;;;;;;16.08;7.30;;;;;;;26.38;93.83;100774.19;4939410;29;20047;-76
2022/08/29 01:09:21;;;;;;;19.02;6.85;;;;;;;26.24;94.92;100768.25;4941292;29;20034;-76
2022/08/29 01:12:16;;;;;;;16.90;7.13;;;;;;;26.24;95.76;100771.75;4938894;29;20412;-76
2022/08/29 01:15:09;;;;;;;22.48;8.40;;;;;;;26.30;97.58;100768.59;4925765;29;20043;-76
2022/08/29 01:17:57;;;;;;;21.80;8.13;;;;;;;26.17;100.00;100769.72;4926034;29;20032;-76
2022/08/29 01:20:58;;;;;;;24.90;7.35;;;;;;;26.02;100.00;100774.47;4925766;29;20039;-76
2022/08/29 01:23:58;;;;;;;18.23;7.43;;;;;;;26.22;100.00;100772.88;4939914;29;20032;-76
2022/08/29 01:26:46;;;;;;;20.88;7.75;;;;;;;26.21;100.00;100781.91;4925999;29;20055;-76
2022/08/29 01:29:33;;;;;;;17.45;7.65;;;;;;;26.32;100.00;100785.41;4938551;29;20114;-76
2022/08/29 01:32:19;;;;;;;16.10;7.40;;;;;;;26.24;100.00;100789.72;4939519;29;20036;-76
2022/08/29 01:35:07;;;;;;;21.08;7.85;;;;;;;26.01;100.00;100782.66;4938681;29;20122;-75
2022/08/29 01:37:53;;;;;;;17.60;6.72;;;;;;;25.87;100.00;100793.59;4938599;29;20043;-76
2022/08/29 01:40:39;;;;;;;17.42;7.57;;;;;;;25.70;100.00;100786.91;4926420;29;20027;-76
2022/08/29 01:43:26;;;;;;;18.63;6.90;;;;;;;25.59;100.00;100786.03;4940012;29;20114;-76
2022/08/29 01:46:16;;;;;;;17.15;6.85;;;;;;;25.79;100.00;100786.16;4939246;29;20024;-76
2022/08/29 01:49:06;;;;;;;18.15;7.22;;;;;;;25.89;100.00;100795.22;4939625;29;20047;-76
2022/08/29 01:51:52;;;;;;;25.00;7.90;;;;;;;25.34;100.00;100795.13;4925373;29;20028;-77
2022/08/29 01:54:40;;;;;;;16.88;6.72;;;;;;;25.43;100.00;100798.94;4939282;29;20424;-77
2022/08/29 01:57:26;;;;;;;20.95;7.55;;;;;;;25.63;100.00;100799.06;4924935;29;20034;-77
2022/08/29 02:00:12;;;;;;;20.42;7.32;;;;;;;25.49;100.00;100803.81;4939225;29;20095;-76
2022/08/29 02:03:00;;;;;;;21.63;7.55;;;;;;;25.63;100.00;100791.03;4926287;29;20035;-76
2022/08/29 02:05:46;;;;;;;23.58;7.43;;;;;;;25.64;100.00;100808.00;4918566;29;20119;-76
2022/08/29 02:08:32;;;;;;;18.83;7.28;;;;;;;25.65;100.00;100809.69;4920157;29;20438;-76
2022/08/29 02:11:19;;;;;;;28.48;7.50;;;;;;;25.90;100.00;100815.72;4920094;29;20043;-76
2022/08/29 02:14:06;;;;;;;21.23;6.88;;;;;;;25.51;100.00;100805.41;4919935;29;20054;-75
2022/08/29 02:16:53;;;;;;;21.23;6.60;;;;;;;25.46;100.00;100810.28;4919753;29;20050;-75
2022/08/29 02:19:39;;;;;;;17.30;6.85;;;;;;;25.66;100.00;100803.34;4919865;29;20099;-76
2022/08/29 02:22:24;;;;;;;18.20;6.45;;;;;;;25.50;100.00;100802.84;4918434;29;20442;-76
2022/08/29 02:25:56;;;;;;;19.17;7.00;;;;;;;25.29;100.00;100809.84;4919706;29;20036;-75
2022/08/29 02:28:17;;;;;;;17.67;6.65;;;;;;;25.24;100.00;100801.28;4918732;29;20048;-76
2022/08/29 02:31:04;;;;;;;17.30;7.20;;;;;;;25.41;100.00;100807.09;4919136;29;20039;-76
2022/08/29 02:33:51;;;;;;;14.95;7.15;;;;;;;25.12;100.00;100805.75;4919460;29;20032;-76
2022/08/29 02:36:37;;;;;;;20.33;7.28;;;;;;;25.11;100.00;100813.94;4919664;29;20088;-75
2022/08/29 02:39:23;;;;;;;21.88;7.22;;;;;;;25.43;100.00;100810.50;4919665;29;20142;-76
2022/08/29 02:42:09;;;;;;;18.13;7.13;;;;;;;24.91;100.00;100812.72;4919104;29;20186;-76
2022/08/29 02:44:55;;;;;;;16.75;6.90;;;;;;;25.00;100.00;100808.50;4919217;29;20386;-76
2022/08/29 02:47:41;;;;;;;15.73;6.57;;;;;;;25.49;100.00;100807.38;4919170;29;20024;-75
2022/08/29 02:50:27;;;;;;;19.90;6.35;;;;;;;25.23;100.00;100811.16;4918218;29;20020;-76
2022/08/29 02:53:15;;;;;;;20.15;6.57;;;;;;;25.16;100.00;100811.75;4917317;29;20055;-76
2022/08/29 02:56:01;;;;;;;21.98;6.72;;;;;;;25.24;100.00;100817.38;4917592;29;20028;-76
2022/08/29 02:58:49;;;;;;;16.83;6.93;;;;;;;25.32;100.00;100823.88;4918699;29;20032;-75
2022/08/29 03:01:37;;;;;;;16.98;6.20;;;;;;;25.00;100.00;100814.72;4919571;29;20152;-76
2022/08/29 03:04:23;;;;;;;20.70;6.90;;;;;;;25.00;100.00;100817.38;4921317;29;20067;-76
2022/08/29 03:07:09;;;;;;;19.77;6.47;;;;;;;25.06;100.00;100821.44;4938064;29;20024;-75
2022/08/29 03:09:54;;;;;;;22.20;6.65;;;;;;;25.10;100.00;100829.16;4938843;29;20028;-76
2022/08/29 03:12:40;;;;;;;17.13;6.80;;;;;;;25.44;98.37;100840.88;4938147;29;20341;-76
2022/08/29 03:15:26;;;;;;;15.38;5.93;;;;;;;25.37;98.23;100839.63;4936518;29;20036;-76
2022/08/29 03:18:13;;;;;;;15.32;6.22;;;;;;;25.29;97.91;100845.59;4937467;29;20050;-76
2022/08/29 03:20:59;;;;;;;20.83;6.40;;;;;;;25.24;98.60;100842.34;4938491;29;20042;-75
2022/08/29 03:23:45;;;;;;;20.52;6.50;;;;;;;25.34;96.74;100845.22;4924715;29;20130;-76
2022/08/29 03:26:31;;;;;;;18.50;6.53;;;;;;;25.40;95.72;100845.63;4938436;29;20364;-76
2022/08/29 03:29:17;;;;;;;19.30;6.20;;;;;;;25.11;97.89;100848.78;4937790;29;20023;-76
2022/08/29 03:32:03;;;;;;;22.52;6.97;;;;;;;25.08;97.98;100849.84;4937518;29;20120;-76
2022/08/29 03:34:49;;;;;;;19.42;6.75;;;;;;;25.09;99.03;100851.59;4928774;29;20042;-74
2022/08/29 03:37:35;;;;;;;16.17;6.60;;;;;;;25.03;98.91;100856.56;4948147;29;20106;-74
2022/08/29 03:40:21;;;;;;;17.88;6.85;;;;;;;25.00;99.28;100854.94;4950026;29;20028;-73
2022/08/29 03:43:08;;;;;;;28.88;7.15;;;;;;;24.86;99.72;100859.59;4946428;29;20028;-74
2022/08/29 03:45:54;;;;;;;20.15;7.10;;;;;;;25.10;99.53;100860.47;4946569;29;20390;-74
2022/08/29 03:48:40;;;;;;;21.00;6.82;;;;;;;25.21;98.92;100864.06;4947388;29;20028;-75
2022/08/29 03:51:25;;;;;;;19.15;6.95;;;;;;;25.31;99.32;100870.47;4934449;29;20039;-74
2022/08/29 03:54:11;;;;;;;13.60;6.38;;;;;;;24.85;100.00;100877.53;4948211;29;20099;-73
2022/08/29 03:56:57;;;;;;;22.33;7.50;;;;;;;25.04;100.00;100877.84;4946934;29;20031;-73
2022/08/29 03:59:43;;;;;;;18.88;7.45;;;;;;;24.89;100.00;100879.03;4947107;29;20047;-74
2022/08/29 04:02:29;;;;;;;23.33;7.80;;;;;;;25.15;100.00;100891.31;4947788;29;20338;-75
2022/08/29 04:05:16;;;;;;;18.02;7.25;;;;;;;25.21;100.00;100890.88;4941814;29;20052;-74
2022/08/29 04:08:02;;;;;;;21.73;7.15;;;;;;;25.03;100.00;100894.09;4928415;29;20028;-75
2022/08/29 04:10:48;;;;;;;19.95;7.07;;;;;;;25.49;100.00;100893.22;4942130;29;20353;-74
2022/08/29 04:13:34;;;;;;;16.27;7.13;;;;;;;25.45;100.00;100897.13;4942970;29;20338;-75
2022/08/29 04:16:24;;;;;;;21.85;7.28;;;;;;;25.14;100.00;100897.66;4941144;29;20086;-76
2022/08/29 04:19:09;;;;;;;23.35;7.80;;;;;;;25.14;98.56;100896.81;4928285;29;20103;-75
2022/08/29 04:21:56;;;;;;;23.23;7.60;;;;;;;25.26;98.69;100899.44;4941665;29;20042;-76
2022/08/29 04:24:41;;;;;;;23.10;7.05;;;;;;;25.36;97.63;100894.28;4939165;29;20349;-76
2022/08/29 04:27:27;;;;;;;22.42;7.10;;;;;;;25.15;99.28;100895.84;4941246;29;20107;-76
2022/08/29 04:30:17;;;;;;;20.48;7.22;;;;;;;25.65;95.62;100895.59;4939858;29;20020;-76
2022/08/29 04:33:03;;;;;;;16.55;7.72;;;;;;;25.93;93.45;100895.16;4941329;29;20110;-76
2022/08/29 04:35:50;;;;;;;29.15;8.32;;;;;;;25.64;95.27;100893.88;4940183;29;20028;-75
2022/08/29 04:38:36;;;;;;;22.85;7.97;;;;;;;26.06;92.32;100896.81;4940624;29;20042;-75
2022/08/29 04:41:22;;;;;;;16.50;7.20;;;;;;;26.03;92.25;100896.16;4940263;29;20484;-75
2022/08/29 04:44:09;;;;;;;25.38;7.35;;;;;;;25.96;91.32;100897.66;4940511;29;20031;-75
2022/08/29 04:46:55;;;;;;;23.42;7.45;;;;;;;25.77;93.27;100903.56;4940632;29;20046;-75
2022/08/29 04:49:41;;;;;;;23.85;7.55;;;;;;;25.61;93.69;100908.41;4941709;29;20406;-75
2022/08/29 04:52:27;;;;;;;21.45;6.72;;;;;;;25.73;92.58;100903.91;4940939;29;20075;-75
2022/08/29 04:55:15;;;;;;;18.83;6.85;;;;;;;26.13;90.90;100900.72;4926595;29;20031;-76
2022/08/29 04:58:00;;;;;;;24.60;6.97;;;;;;;26.09;90.47;100901.94;4940883;29;20045;-76
2022/08/29 05:00:46;;;;;;;21.50;6.85;;;;;;;26.31;90.21;100901.06;4940157;29;20031;-76
2022/08/29 05:03:33;;;;;;;25.00;6.95;;;;;;;26.24;90.37;100902.56;4940515;29;20493;-76
2022/08/29 05:06:21;;;;;;;26.00;7.20;;;;;;;26.01;91.09;100908.88;4920926;29;20056;-76
2022/08/29 05:09:06;;;;;;;17.30;7.35;;;;;;;26.02;91.64;100906.06;4919695;29;20044;-76
2022/08/29 05:11:52;;;;;;;26.90;6.47;;;;;;;25.60;92.80;100903.97;4920843;29;20028;-76
2022/08/29 05:14:38;;;;;;;21.33;6.80;;;;;;;25.92;90.87;100906.88;4921367;29;20058;-76
2022/08/29 05:17:25;;;;;;;22.50;7.30;;;;;;;25.74;91.93;100910.97;4919640;29;20365;-76
2022/08/29 05:20:12;;;;;;;24.08;6.88;;;;;;;25.91;90.81;100902.47;4920704;29;20107;-76
2022/08/29 05:22:58;;;;;;;23.67;6.75;;;;;;;26.51;89.00;100903.88;4919910;29;20339;-76
2022/08/29 05:25:44;;;;;;;22.92;7.43;;;;;;;26.54;87.46;100902.78;4920825;29;20024;-77
2022/08/29 05:28:32;;;;;;;25.77;7.00;;;;;;;26.58;86.52;100902.47;4920894;29;20039;-76
2022/08/29 05:31:20;;;;;;;20.95;6.78;;;;;;;26.67;85.76;100901.72;4920833;29;20461;-76
2022/08/29 05:34:07;;;;;;;23.88;6.65;;;;;;;26.68;85.21;100914.16;4921058;29;20127;-76
2022/08/29 05:36:53;;;;;;;22.10;6.97;;;;;;;26.15;87.21;100914.00;4920653;29;20032;-76
2022/08/29 05:39:40;;;;;;;14.38;6.75;;;;;;;26.15;89.22;100920.25;4920687;29;20186;-76
2022/08/29 05:42:26;;;;;;;27.83;6.75;;;;;;;26.63;86.35;100920.88;4920242;29;20469;-76
2022/08/29 05:45:12;;;;;;;22.23;6.72;;;;;;;26.34;85.98;100923.19;4919141;29;20035;-76
2022/08/29 05:48:02;;;;;;;21.02;5.88;;;;;;;27.04;82.73;100921.06;4920230;29;20035;-76
2022/08/29 05:50:47;;;;;;;15.63;6.43;;;;;;;27.09;81.44;100927.78;4920609;29;20495;-76
2022/08/29 05:53:33;;;;;;;24.23;6.53;;;;;;;26.97;82.04;100920.69;4919240;29;20067;-78
2022/08/29 05:56:21;;;;;;;22.48;6.75;;;;;;;26.84;81.25;100928.06;4920752;29;20090;-76
2022/08/29 05:59:07;;;;;;;17.52;6.20;;;;;;;26.99;80.03;100923.28;4920944;29;20036;-76
2022/08/29 06:01:53;;;;;;;22.27;6.65;;;;;;;26.56;83.34;100931.25;4920273;29;20029;-76
2022/08/29 06:04:39;;;;;;;19.95;6.60;;;;;;;26.95;84.00;100922.69;4925240;29;20079;-76
2022/08/29 06:07:25;;;;;;;25.52;6.82;;;;;;;27.38;83.63;100933.47;4924581;29;20044;-75
2022/08/29 06:10:11;;;;;;;13.32;7.13;;;;;;;27.26;87.48;100937.19;4931213;29;20036;-76
2022/08/29 06:12:57;;;;;;;19.05;8.70;;;;;;;27.28;88.63;100932.50;4932902;29;20037;-75
2022/08/29 06:15:44;;;;;;;21.10;7.95;;;;;;;27.57;86.21;100933.66;4934969;29;20039;-75
2022/08/29 06:18:30;;;;;;;22.02;8.65;;;;;;;27.70;85.58;100937.00;4930273;29;20032;-74
2022/08/29 06:21:16;;;;;;;28.13;12.52;;;;;;;27.69;82.23;100938.00;4929307;29;20036;-78
2022/08/29 06:24:03;;;;;;;17.67;7.78;;;;;;;27.88;80.12;100938.13;4928183;29;20381;-75
2022/08/29 06:26:49;;;;;;;23.25;7.57;;;;;;;28.15;77.55;100934.91;4930262;29;20191;-77
2022/08/29 06:29:35;;;;;;;27.75;7.68;;;;;;;28.21;77.53;100940.63;4927933;29;20047;-76
2022/08/29 06:32:20;;;;;;;18.73;7.05;;;;;;;28.20;77.93;100947.00;4929113;29;20035;-77
2022/08/29 06:35:07;;;;;;;24.88;6.88;;;;;;;28.13;76.04;100953.06;4928093;29;20103;-75
2022/08/29 06:37:52;;;;;;;14.95;6.18;;;;;;;28.12;76.92;100951.38;4928406;29;20031;-74
2022/08/29 06:40:38;;;;;;;22.20;6.75;;;;;;;28.18;76.21;100950.81;4928794;29;20031;-76
2022/08/29 06:43:24;;;;;;;24.25;7.53;;;;;;;28.23;76.66;100951.25;4928114;29;20111;-75
2022/08/29 06:46:23;;;;;;;20.08;7.72;;;;;;;28.21;75.44;100945.16;4914977;29;20118;-75
2022/08/29 06:49:12;;;;;;;21.55;7.22;;;;;;;28.34;75.10;100946.66;4927381;29;20031;-74
2022/08/29 06:51:58;;;;;;;30.08;9.80;;;;;;;28.47;73.89;100955.41;4928549;29;20355;-76
2022/08/29 06:54:50;;;;;;;18.35;6.93;;;;;;;28.47;72.95;100957.25;5061668;28;20379;-75
2022/08/29 06:57:41;;;;;;;22.00;6.55;;;;;;;28.51;73.42;100961.38;5041927;28;20052;-76
2022/08/29 07:00:27;;;;;;;15.82;6.28;;;;;;;28.53;73.08;100954.03;5066910;28;20032;-76
2022/08/29 07:03:12;;;;;;;17.95;6.82;;;;;;;28.20;78.16;100955.09;5080206;28;20028;-75
2022/08/29 07:05:58;;;;;;;17.42;6.97;;;;;;;28.60;77.73;100952.50;5082999;28;20032;-76
2022/08/29 07:08:45;;;;;;;21.23;6.50;;;;;;;28.57;78.76;100955.47;5080566;28;20036;-76
2022/08/29 07:11:31;;;;;;;19.52;7.03;;;;;;;28.39;79.53;100960.59;5068711;28;20035;-76
2022/08/29 07:14:17;;;;;;;20.88;6.75;;;;;;;28.37;81.31;100962.53;5080190;28;20051;-75
2022/08/29 07:17:03;;;;;;;15.55;6.60;;;;;;;28.75;77.68;100961.91;5082027;28;20456;-75
2022/08/29 07:19:49;;;;;;;17.83;7.55;;;;;;;29.04;77.21;100952.09;5082356;28;20036;-76
2022/08/29 07:22:35;;;;;;;14.82;6.82;;;;;;;28.96;75.85;100950.06;5082096;28;20085;-76
2022/08/29 07:25:21;;;;;;;16.05;7.18;;;;;;;28.89;76.86;100956.16;5081528;28;20104;-75
2022/08/29 07:28:07;;;;;;;14.00;7.25;;;;;;;29.23;74.95;100955.69;5081615;28;20033;-75
2022/08/29 07:30:53;;;;;;;17.45;6.88;;;;;;;29.23;73.60;100961.09;5080532;28;21318;-76
2022/08/29 07:33:39;;;;;;;26.27;8.48;;;;;;;29.64;72.71;100960.88;5079207;28;20067;-75
2022/08/29 07:36:25;;;;;;;20.40;6.72;;;;;;;29.81;69.50;100959.31;5082575;28;20039;-75
2022/08/29 07:39:16;;;;;;;19.75;7.43;;;;;;;29.75;70.76;100966.13;5066063;28;20401;-75
2022/08/29 07:42:03;;;;;;;15.45;6.47;;;;;;;30.12;67.38;100956.25;5080109;28;20262;-76
2022/08/29 07:44:49;;;;;;;15.00;6.65;;;;;;;30.17;66.42;100958.53;5079679;28;20033;-75
2022/08/29 07:47:35;;;;;;;16.52;6.72;;;;;;;30.29;66.80;100960.94;5081522;28;20021;-75
2022/08/29 07:50:21;;;;;;;15.80;7.15;;;;;;;30.56;63.87;100961.00;5081531;28;20457;-75
2022/08/29 07:53:06;;;;;;;19.20;7.55;;;;;;;30.78;63.21;100957.94;5063542;28;20296;-75
2022/08/29 07:55:52;;;;;;;20.25;7.45;;;;;;;30.46;64.36;100957.47;5081773;28;20043;-75
2022/08/29 07:58:39;;;;;;;18.35;6.88;;;;;;;31.17;61.88;100953.16;5065124;28;20034;-75
2022/08/29 08:01:25;;;;;;;17.67;6.90;;;;;;;31.25;60.73;100954.13;5080337;28;20051;-75
2022/08/29 08:04:11;;;;;;;21.10;6.90;;;;;;;31.64;55.80;100951.97;5076831;28;20078;-75
2022/08/29 08:06:57;;;;;;;16.50;6.78;;;;;;;31.79;56.75;100953.19;5067092;28;20520;-75
2022/08/29 08:09:43;;;;;;;19.52;6.80;;;;;;;31.67;56.27;100959.81;5066950;28;20036;-75
2022/08/29 08:12:29;;;;;;;18.92;6.53;;;;;;;32.01;54.63;100959.97;5067029;28;20028;-74
2022/08/29 08:15:15;;;;;;;24.35;7.10;;;;;;;32.22;52.83;100961.28;5066918;28;20033;-76
2022/08/29 08:18:01;;;;;;;16.70;6.80;;;;;;;32.41;51.35;100969.25;5068492;28;20028;-75
2022/08/29 08:20:47;;;;;;;17.65;7.63;;;;;;;32.98;50.04;100952.25;5066642;28;20037;-74
2022/08/29 08:23:33;;;;;;;20.52;7.15;;;;;;;32.95;48.20;100957.16;5064069;28;20463;-75
2022/08/29 08:26:19;;;;;;;29.75;11.02;;;;;;;32.86;47.63;100955.44;5066772;28;20032;-75
2022/08/29 08:29:05;;;;;;;20.98;8.23;;;;;;;33.74;47.53;100961.94;5052865;28;20107;-76
2022/08/29 08:31:51;;;;;;;18.63;6.60;;;;;;;34.21;45.03;100965.69;5065219;28;20127;-74
2022/08/29 08:34:37;;;;;;;25.17;7.03;;;;;;;34.08;43.36;100965.34;5066074;28;20025;-75
2022/08/29 08:37:22;;;;;;;22.15;6.32;;;;;;;33.98;40.31;100963.84;5067076;28;20522;-76
2022/08/29 08:40:17;;;;;;;17.65;5.65;;;;;;;33.20;43.13;100959.81;5066067;28;20020;-75
2022/08/29 08:43:07;;;;;;;19.85;6.03;;;;;;;33.74;40.39;100966.53;5065963;28;20550;-76
2022/08/29 08:45:55;;;;;;;21.52;6.50;;;;;;;33.75;40.70;100962.81;5053879;28;20040;-76
2022/08/29 08:48:42;;;;;;;16.00;6.13;;;;;;;34.27;40.74;100967.72;5066408;28;20021;-76
2022/08/29 08:51:33;;;;;;;17.70;6.65;;;;;;;34.28;41.80;100968.56;5066195;28;20036;-76
2022/08/29 08:54:23;;;;;;;19.90;6.13;;;;;;;34.76;40.26;100965.75;5066495;28;20067;-75
2022/08/29 08:57:11;;;;;;;22.50;7.00;;;;;;;34.79;42.03;100955.34;5065645;28;20453;-75
2022/08/29 08:59:58;;;;;;;20.77;7.00;;;;;;;33.74;43.64;100964.66;5065653;28;20471;-76
2022/08/29 09:02:55;;;;;;;17.52;6.68;;;;;;;34.25;43.60;100966.19;5065385;28;20071;-76
2022/08/29 09:06:00;;;;;;;15.38;6.93;;;;;;;35.29;42.23;100962.31;5051619;28;20028;-75
2022/08/29 09:08:51;;;;;;;16.08;6.75;;;;;;;35.06;42.21;100960.38;5066582;28;20043;-76
2022/08/29 09:11:44;;;;;;;22.80;6.80;;;;;;;34.57;43.04;100960.72;5066565;28;20090;-76
2022/08/29 09:14:43;;;;;;;20.55;7.13;;;;;;;35.45;41.86;100952.16;5065935;28;20139;-76
2022/08/29 09:17:56;;;;;;;18.52;6.50;;;;;;;35.62;41.54;100956.47;5064002;28;20036;-75
2022/08/29 09:20:42;;;;;;;55.08;40.50;;;;;;;35.36;42.79;100947.81;5065410;28;20020;-75
2022/08/29 09:23:38;;;;;;;20.85;7.63;;;;;;;36.16;40.81;100955.31;5063466;28;20118;-76
2022/08/29 09:26:28;;;;;;;20.77;7.25;;;;;;;36.26;39.73;100955.94;5067287;28;20127;-76
2022/08/29 09:29:19;;;;;;;21.00;7.15;;;;;;;35.89;39.98;100950.47;5051534;28;20090;-76
2022/08/29 09:32:12;;;;;;;17.65;6.70;;;;;;;35.86;40.77;100955.44;5063980;28;20024;-75
2022/08/29 09:34:58;;;;;;;21.63;6.43;;;;;;;36.23;39.69;100953.59;5066396;28;20040;-75
2022/08/29 09:38:01;;;;;;;14.98;7.03;;;;;;;36.05;41.40;100953.06;5065832;28;20039;-75
2022/08/29 09:40:59;;;;;;;26.58;7.18;;;;;;;35.67;39.87;100950.47;5064351;28;20029;-75
2022/08/29 09:43:49;;;;;;;22.70;6.93;;;;;;;34.99;42.27;100950.34;5062743;28;20415;-76
2022/08/29 09:46:34;;;;;;;32.17;10.25;;;;;;;35.46;41.89;100948.41;5065408;28;20020;-77
2022/08/29 09:49:21;;;;;;;16.70;6.93;;;;;;;35.92;40.37;100949.25;5064925;28;20055;-76
2022/08/29 09:52:11;;;;;;;29.38;10.55;;;;;;;36.10;41.38;100944.31;5065409;28;20059;-76
2022/08/29 09:55:14;;;;;;;23.30;7.20;;;;;;;35.67;41.56;100945.84;5043569;28;20083;-76
2022/08/29 09:58:09;;;;;;;20.77;7.65;;;;;;;35.51;41.05;100935.06;5044871;28;20472;-76
2022/08/29 10:00:57;;;;;;;19.63;8.50;;;;;;;36.03;40.41;100935.19;5046174;28;20123;-77
2022/08/29 10:03:55;;;;;;;20.40;7.38;;;;;;;35.49;40.49;100937.13;5042448;28;20040;-76
2022/08/29 10:06:41;;;;;;;16.73;6.80;;;;;;;36.33;39.99;100943.25;5042283;28;20048;-76
2022/08/29 10:09:27;;;;;;;20.38;6.65;;;;;;;35.95;40.43;100936.09;5045836;28;20575;-76
2022/08/29 10:12:21;;;;;;;17.40;5.95;;;;;;;36.39;39.39;100941.66;5044772;28;20029;-76
2022/08/29 10:15:11;;;;;;;19.42;6.45;;;;;;;35.94;39.30;100934.41;5031757;28;20112;-76
2022/08/29 10:18:20;;;;;;;25.42;7.70;;;;;;;35.79;38.90;100940.88;5044809;28;20043;-75
2022/08/29 10:21:18;;;;;;;17.48;6.85;;;;;;;35.62;39.08;100926.47;5045724;28;20517;-76
2022/08/29 10:24:12;;;;;;;28.60;9.02;;;;;;;36.01;37.83;100935.38;5043235;28;20025;-76
2022/08/29 10:27:16;;;;;;;17.15;6.03;;;;;;;36.34;37.85;100930.44;5045537;28;20029;-76
2022/08/29 10:30:26;;;;;;;14.63;5.93;;;;;;;36.24;38.87;100938.06;5045703;28;20025;-76
2022/08/29 10:33:34;;;;;;;18.05;6.30;;;;;;;36.08;38.22;100930.00;5041692;28;20387;-75
2022/08/29 10:36:34;;;;;;;16.45;6.03;;;;;;;36.15;37.97;100926.34;5044384;28;20098;-77
2022/08/29 10:39:46;;;;;;;20.08;6.38;;;;;;;36.42;36.68;100925.75;5043818;28;20090;-76
2022/08/29 10:42:35;;;;;;;16.17;7.10;;;;;;;36.34;37.25;100922.25;5044973;28;20032;-76
2022/08/29 10:45:34;;;;;;;18.27;6.15;;;;;;;36.51;36.88;100913.69;5043646;28;20102;-76
2022/08/29 10:48:28;;;;;;;15.13;5.88;;;;;;;35.77;37.07;100912.91;5043462;28;20135;-76
2022/08/29 10:51:37;;;;;;;20.38;5.90;;;;;;;36.45;36.15;100913.59;5030145;28;20029;-76
2022/08/29 10:54:26;;;;;;;20.67;6.72;;;;;;;36.19;36.33;100910.47;5058948;28;20063;-76
2022/08/29 10:57:24;;;;;;;31.55;6.03;;;;;;;36.15;36.95;100911.88;5063382;28;20089;-75
2022/08/29 11:00:18;;;;;;;17.25;6.72;;;;;;;36.50;36.01;100906.53;5064185;28;20079;-76
2022/08/29 11:03:10;;;;;;;17.02;6.15;;;;;;;36.68;35.90;100896.09;5063650;28;20036;-75
2022/08/29 11:06:31;;;;;;;15.15;5.55;;;;;;;36.96;35.31;100898.97;5063506;28;20040;-76
2022/08/29 11:09:24;;;;;;;23.73;6.13;;;;;;;36.51;35.21;100894.56;5063359;28;20032;-76
2022/08/29 11:12:43;;;;;;;20.73;6.25;;;;;;;36.84;34.71;100892.31;5031008;28;20087;-76
2022/08/29 11:15:41;;;;;;;14.77;5.82;;;;;;;36.88;34.19;100885.44;5064267;28;20040;-76
2022/08/29 11:18:43;;;;;;;17.65;6.38;;;;;;;37.11;33.98;100883.38;5048854;28;20032;-76
2022/08/29 11:21:57;;;;;;;16.42;5.78;;;;;;;37.30;33.15;100880.03;5063851;28;20064;-76
2022/08/29 11:24:47;;;;;;;18.75;5.60;;;;;;;36.95;34.12;100878.13;5063883;28;20033;-76
2022/08/29 11:27:57;;;;;;;19.13;5.93;;;;;;;36.48;34.90;100877.75;5064881;28;20028;-76
2022/08/29 11:30:58;;;;;;;21.08;5.57;;;;;;;35.72;35.04;100875.25;5054380;28;20127;-75
2022/08/29 11:33:53;;;;;;;13.75;5.25;;;;;;;36.26;33.32;100873.22;5061432;28;20029;-76
2022/08/29 11:36:39;;;;;;;16.40;5.65;;;;;;;36.10;34.69;100871.50;5070802;28;20043;-78
2022/08/29 11:39:50;;;;;;;21.10;6.07;;;;;;;36.33;34.48;100866.81;5070744;28;20036;-77
2022/08/29 11:42:42;;;;;;;22.33;5.80;;;;;;;35.97;34.24;100868.56;5061845;28;20119;-78
2022/08/29 11:45:39;;;;;;;18.83;5.88;;;;;;;36.41;33.62;100857.69;5074346;28;20020;-77
2022/08/29 11:48:36;;;;;;;19.05;5.90;;;;;;;36.53;34.62;100857.03;5074228;28;20346;-76
2022/08/29 11:51:26;;;;;;;19.15;5.65;;;;;;;36.50;33.93;100856.53;5067758;28;20071;-76
2022/08/29 11:54:24;;;;;;;18.55;5.40;;;;;;;36.58;33.18;100854.56;5051237;28;20053;-75
2022/08/29 11:57:11;;;;;;;13.40;5.57;;;;;;;36.48;33.17;100850.44;5067609;28;20032;-75
2022/08/29 11:59:58;;;;;;;16.90;5.88;;;;;;;37.36;32.91;100852.75;5052859;28;20070;-76
2022/08/29 12:02:45;;;;;;;17.23;5.93;;;;;;;37.44;33.08;100846.31;5066431;28;20052;-76
2022/08/29 12:05:33;;;;;;;19.00;5.70;;;;;;;36.96;31.78;100849.78;5067280;28;20159;-76
2022/08/29 12:08:51;;;;;;;19.83;5.47;;;;;;;36.87;32.52;100851.78;5067517;28;20044;-76
2022/08/29 12:12:02;;;;;;;17.70;5.63;;;;;;;36.97;31.74;100846.88;5066465;28;20056;-75
2022/08/29 12:14:51;;;;;;;12.27;5.57;;;;;;;36.68;32.21;100837.88;5051192;28;20036;-75
2022/08/29 12:17:42;;;;;;;14.98;6.20;;;;;;;36.37;31.79;100837.25;5065293;28;20036;-76
2022/08/29 12:20:35;;;;;;;33.83;7.95;;;;;;;36.47;31.97;100835.94;5068005;28;20040;-76
2022/08/29 12:23:28;;;;;;;21.42;5.72;;;;;;;37.03;32.12;100832.41;5065051;28;20090;-76
2022/08/29 12:26:42;;;;;;;13.50;5.47;;;;;;;37.00;32.29;100830.06;5069417;28;20031;-76
2022/08/29 12:29:38;;;;;;;18.27;5.30;;;;;;;37.04;30.72;100831.38;5074227;28;20089;-76
2022/08/29 12:32:47;;;;;;;13.30;5.38;;;;;;;37.24;31.44;100816.06;5075212;28;20021;-76
2022/08/29 12:36:04;;;;;;;17.70;6.28;;;;;;;37.87;31.09;100826.91;5075326;28;20028;-77
2022/08/29 12:39:07;;;;;;;14.75;5.53;;;;;;;37.72;30.21;100819.88;5074197;28;20052;-77
2022/08/29 12:42:32;;;;;;;18.67;5.65;;;;;;;37.83;29.40;100819.28;5075451;28;20031;-77
2022/08/29 12:45:25;;;;;;;19.48;10.90;;;;;;;37.58;30.02;100821.63;5075205;28;20433;-76
2022/08/29 12:48:32;;;;;;;14.02;5.47;;;;;;;38.34;29.31;100817.97;5075091;28;20032;-76
2022/08/29 12:51:39;;;;;;;15.60;5.40;;;;;;;37.51;30.06;100812.50;5057864;28;20504;-77
2022/08/29 12:54:43;;;;;;;19.42;5.68;;;;;;;37.88;29.64;100803.13;5057878;28;20063;-77
2022/08/29 12:57:33;;;;;;;16.90;5.50;;;;;;;37.68;29.94;100805.72;5061899;28;20329;-77
2022/08/29 13:00:24;;;;;;;16.83;5.65;;;;;;;37.17;30.11;100795.19;5055477;28;20021;-77